createdAt,value
2019-03-13T00:00:32.069Z,247.50
2019-03-13T00:01:32.146Z,247.50
2019-03-13T00:02:32.144Z,247.50
2019-03-13T00:03:32.086Z,270.00
2019-03-13T00:04:32.142Z,270.00
2019-03-13T00:05:32.141Z,247.50
2019-03-13T00:06:32.165Z,247.50
2019-03-13T00:07:32.243Z,270.00
2019-03-13T00:08:32.072Z,270.00
2019-03-13T00:09:32.115Z,270.00
2019-03-13T00:10:32.717Z,270.00
2019-03-13T00:11:32.161Z,247.50
2019-03-13T00:12:32.077Z,270.00
2019-03-13T00:13:32.077Z,270.00
2019-03-13T00:14:32.076Z,270.00
2019-03-13T00:15:32.174Z,247.50
2019-03-13T00:16:32.151Z,247.50
2019-03-13T00:17:32.143Z,247.50
2019-03-13T00:18:32.081Z,247.50
2019-03-13T00:19:32.081Z,247.50
2019-03-13T00:20:32.161Z,180.00
2019-03-13T00:21:32.153Z,247.50
2019-03-13T00:22:32.141Z,270.00
2019-03-13T00:23:32.158Z,247.50
2019-03-13T00:24:32.154Z,225.00
2019-03-13T00:25:32.154Z,247.50
2019-03-13T00:26:32.167Z,180.00
2019-03-13T00:27:32.102Z,225.00
2019-03-13T00:28:32.109Z,225.00
2019-03-13T00:29:32.160Z,247.50
2019-03-13T00:30:32.114Z,225.00
2019-03-13T00:31:32.159Z,247.50
2019-03-13T00:32:32.108Z,247.50
2019-03-13T00:33:32.190Z,225.00
2019-03-13T00:34:32.175Z,292.50
2019-03-13T00:35:32.162Z,225.00
2019-03-13T00:36:32.098Z,247.50
2019-03-13T00:37:32.023Z,225.00
2019-03-13T00:38:32.139Z,225.00
2019-03-13T00:39:32.040Z,270.00
2019-03-13T00:40:32.034Z,292.50
2019-03-13T00:41:32.070Z,270.00
2019-03-13T00:42:32.149Z,270.00
2019-03-13T00:43:32.083Z,247.50
2019-03-13T00:44:32.026Z,270.00
2019-03-13T00:45:32.085Z,270.00
2019-03-13T00:46:32.098Z,270.00
2019-03-13T00:47:32.089Z,270.00
2019-03-13T00:48:32.162Z,247.50
2019-03-13T00:49:32.162Z,270.00
2019-03-13T00:50:32.093Z,270.00
2019-03-13T00:51:32.093Z,270.00
2019-03-13T00:52:32.166Z,270.00
2019-03-13T00:53:32.095Z,270.00
2019-03-13T00:54:32.165Z,270.00
2019-03-13T00:55:32.164Z,292.50
2019-03-13T00:56:32.097Z,247.50
2019-03-13T00:57:32.173Z,292.50
2019-03-13T00:58:32.177Z,270.00
2019-03-13T00:59:32.183Z,270.00
2019-03-13T01:00:32.179Z,247.50
2019-03-13T01:01:32.181Z,270.00
2019-03-13T01:02:32.181Z,270.00
2019-03-13T01:03:32.072Z,270.00
2019-03-13T01:04:32.185Z,292.50
2019-03-13T01:05:32.125Z,270.00
2019-03-13T01:06:32.116Z,247.50
2019-03-13T01:07:32.124Z,225.00
2019-03-13T01:08:32.114Z,180.00
2019-03-13T01:09:32.193Z,270.00
2019-03-13T01:10:32.190Z,247.50
2019-03-13T01:11:32.128Z,270.00
2019-03-13T01:12:32.118Z,247.50
2019-03-13T01:13:32.196Z,270.00
2019-03-13T01:14:32.189Z,247.50
2019-03-13T01:15:32.221Z,202.50
2019-03-13T01:16:32.124Z,225.00
2019-03-13T01:17:32.214Z,247.50
2019-03-13T01:18:32.183Z,270.00
2019-03-13T01:19:32.127Z,225.00
2019-03-13T01:20:32.112Z,270.00
2019-03-13T01:21:32.120Z,270.00
2019-03-13T01:22:32.188Z,247.50
2019-03-13T01:23:32.120Z,247.50
2019-03-13T01:24:32.271Z,225.00
2019-03-13T01:25:32.194Z,247.50
2019-03-13T01:26:32.126Z,247.50
2019-03-13T01:27:32.198Z,225.00
2019-03-13T01:28:32.129Z,247.50
2019-03-13T01:29:32.215Z,270.00
2019-03-13T01:30:32.131Z,202.50
2019-03-13T01:31:32.194Z,225.00
2019-03-13T01:32:32.132Z,270.00
2019-03-13T01:33:32.146Z,247.50
2019-03-13T01:34:32.134Z,247.50
2019-03-13T01:35:32.132Z,247.50
2019-03-13T01:36:32.209Z,225.00
2019-03-13T01:37:32.206Z,270.00
2019-03-13T01:38:32.147Z,202.50
2019-03-13T01:39:32.138Z,247.50
2019-03-13T01:40:32.207Z,247.50
2019-03-13T01:41:32.219Z,270.00
2019-03-13T01:42:32.159Z,247.50
2019-03-13T01:43:32.213Z,247.50
2019-03-13T01:44:32.153Z,202.50
2019-03-13T01:45:32.216Z,225.00
2019-03-13T01:46:32.218Z,202.50
2019-03-13T01:47:32.217Z,225.00
2019-03-13T01:48:32.193Z,225.00
2019-03-13T01:49:32.152Z,180.00
2019-03-13T01:50:32.223Z,180.00
2019-03-13T01:51:32.283Z,225.00
2019-03-13T01:52:32.450Z,247.50
2019-03-13T01:53:32.149Z,225.00
2019-03-13T01:54:32.121Z,225.00
2019-03-13T01:55:32.221Z,247.50
2019-03-13T01:56:32.157Z,270.00
2019-03-13T01:57:32.166Z,270.00
2019-03-13T01:58:32.158Z,247.50
2019-03-13T01:59:32.221Z,202.50
2019-03-13T02:00:32.161Z,157.50
2019-03-13T02:01:32.115Z,180.00
2019-03-13T02:02:32.236Z,112.50
2019-03-13T02:03:32.223Z,157.50
2019-03-13T02:04:32.234Z,225.00
2019-03-13T02:05:32.225Z,202.50
2019-03-13T02:06:32.198Z,157.50
2019-03-13T02:07:32.224Z,180.00
2019-03-13T02:08:32.229Z,202.50
2019-03-13T02:09:32.228Z,247.50
2019-03-13T02:10:32.166Z,202.50
2019-03-13T02:11:32.161Z,180.00
2019-03-13T02:12:32.158Z,180.00
2019-03-13T02:13:32.177Z,225.00
2019-03-13T02:14:32.231Z,225.00
2019-03-13T02:15:32.234Z,225.00
2019-03-13T02:16:32.233Z,180.00
2019-03-13T02:17:32.243Z,225.00
2019-03-13T02:18:32.226Z,247.50
2019-03-13T02:19:32.229Z,270.00
2019-03-13T02:20:32.226Z,225.00
2019-03-13T02:21:32.167Z,270.00
2019-03-13T02:22:32.230Z,157.50
2019-03-13T02:23:32.157Z,202.50
2019-03-13T02:24:32.250Z,202.50
2019-03-13T02:25:32.158Z,202.50
2019-03-13T02:26:32.232Z,225.00
2019-03-13T02:27:32.159Z,270.00
2019-03-13T02:28:32.177Z,270.00
2019-03-13T02:29:32.192Z,270.00
2019-03-13T02:30:32.235Z,202.50
2019-03-13T02:31:32.268Z,202.50
2019-03-13T02:32:32.248Z,202.50
2019-03-13T02:33:32.175Z,202.50
2019-03-13T02:34:32.255Z,180.00
2019-03-13T02:35:32.206Z,180.00
2019-03-13T02:36:32.252Z,202.50
2019-03-13T02:37:32.180Z,225.00
2019-03-13T02:38:32.251Z,180.00
2019-03-13T02:39:32.266Z,225.00
2019-03-13T02:40:32.193Z,225.00
2019-03-13T02:41:32.262Z,157.50
2019-03-13T02:42:32.257Z,202.50
2019-03-13T02:43:32.287Z,202.50
2019-03-13T02:44:32.253Z,180.00
2019-03-13T02:45:32.239Z,202.50
2019-03-13T02:46:32.264Z,180.00
2019-03-13T02:47:32.210Z,180.00
2019-03-13T02:48:32.188Z,180.00
2019-03-13T02:49:32.264Z,202.50
2019-03-13T02:50:32.224Z,180.00
2019-03-13T02:51:32.192Z,180.00
2019-03-13T02:52:32.196Z,180.00
2019-03-13T02:53:32.190Z,180.00
2019-03-13T02:54:32.262Z,180.00
2019-03-13T02:55:32.263Z,202.50
2019-03-13T02:56:32.196Z,202.50
2019-03-13T02:57:32.192Z,180.00
2019-03-13T02:58:32.280Z,157.50
2019-03-13T02:59:32.202Z,180.00
2019-03-13T03:00:32.193Z,180.00
2019-03-13T03:01:32.194Z,157.50
2019-03-13T03:02:32.269Z,135.00
2019-03-13T03:03:32.268Z,180.00
2019-03-13T03:04:32.197Z,180.00
2019-03-13T03:05:32.282Z,135.00
2019-03-13T03:06:32.208Z,135.00
2019-03-13T03:07:32.269Z,157.50
2019-03-13T03:08:32.195Z,180.00
2019-03-13T03:09:32.263Z,135.00
2019-03-13T03:10:32.214Z,135.00
2019-03-13T03:11:32.275Z,157.50
2019-03-13T03:12:32.204Z,202.50
2019-03-13T03:13:32.197Z,157.50
2019-03-13T03:14:32.268Z,180.00
2019-03-13T03:15:32.197Z,157.50
2019-03-13T03:16:32.269Z,135.00
2019-03-13T03:17:32.272Z,112.50
2019-03-13T03:18:32.277Z,157.50
2019-03-13T03:19:32.205Z,135.00
2019-03-13T03:20:32.222Z,157.50
2019-03-13T03:21:32.339Z,225.00
2019-03-13T03:22:32.216Z,157.50
2019-03-13T03:23:32.275Z,180.00
2019-03-13T03:24:32.286Z,157.50
2019-03-13T03:25:32.277Z,157.50
2019-03-13T03:26:32.281Z,157.50
2019-03-13T03:27:32.219Z,135.00
2019-03-13T03:28:32.269Z,180.00
2019-03-13T03:29:32.279Z,135.00
2019-03-13T03:30:32.168Z,157.50
2019-03-13T03:31:32.250Z,135.00
2019-03-13T03:32:32.275Z,135.00
2019-03-13T03:33:32.170Z,135.00
2019-03-13T03:34:32.274Z,157.50
2019-03-13T03:35:32.159Z,157.50
2019-03-13T03:36:32.224Z,112.50
2019-03-13T03:37:32.186Z,157.50
2019-03-13T03:38:32.331Z,157.50
2019-03-13T03:39:32.296Z,112.50
2019-03-13T03:40:32.227Z,135.00
2019-03-13T03:41:32.226Z,135.00
2019-03-13T03:42:32.187Z,157.50
2019-03-13T03:43:40.163Z,135.00
2019-03-13T03:44:32.289Z,135.00
2019-03-13T03:45:32.247Z,112.50
2019-03-13T03:46:32.273Z,135.00
2019-03-13T03:47:32.240Z,90.00
2019-03-13T03:48:32.329Z,112.50
2019-03-13T03:49:32.225Z,157.50
2019-03-13T03:50:32.300Z,135.00
2019-03-13T03:51:32.295Z,112.50
2019-03-13T03:52:32.226Z,135.00
2019-03-13T03:53:32.297Z,135.00
2019-03-13T03:54:32.236Z,157.50
2019-03-13T03:55:32.300Z,157.50
2019-03-13T03:56:32.221Z,135.00
2019-03-13T03:57:32.308Z,112.50
2019-03-13T03:58:32.241Z,135.00
2019-03-13T03:59:32.275Z,135.00
2019-03-13T04:00:32.254Z,157.50
2019-03-13T04:01:32.318Z,112.50
2019-03-13T04:02:32.247Z,157.50
2019-03-13T04:03:32.325Z,225.00
2019-03-13T04:04:32.317Z,180.00
2019-03-13T04:05:32.252Z,112.50
2019-03-13T04:06:32.242Z,90.00
2019-03-13T04:07:32.247Z,135.00
2019-03-13T04:08:32.312Z,180.00
2019-03-13T04:09:32.246Z,67.50
2019-03-13T04:10:32.242Z,157.50
2019-03-13T04:11:32.341Z,292.50
2019-03-13T04:12:32.246Z,157.50
2019-03-13T04:13:32.320Z,90.00
2019-03-13T04:14:32.250Z,112.50
2019-03-13T04:15:32.351Z,112.50
2019-03-13T04:16:32.328Z,270.00
2019-03-13T04:17:32.256Z,157.50
2019-03-13T04:18:32.322Z,157.50
2019-03-13T04:19:32.323Z,270.00
2019-03-13T04:20:32.325Z,180.00
2019-03-13T04:21:32.330Z,225.00
2019-03-13T04:22:32.221Z,180.00
2019-03-13T04:23:32.259Z,135.00
2019-03-13T04:24:32.327Z,135.00
2019-03-13T04:25:32.268Z,135.00
2019-03-13T04:26:32.257Z,202.50
2019-03-13T04:27:32.256Z,180.00
2019-03-13T04:28:32.332Z,112.50
2019-03-13T04:29:32.261Z,202.50
2019-03-13T04:30:32.341Z,90.00
2019-03-13T04:31:32.330Z,112.50
2019-03-13T04:32:32.282Z,157.50
2019-03-13T04:33:32.272Z,90.00
2019-03-13T04:34:32.336Z,180.00
2019-03-13T04:35:32.341Z,225.00
2019-03-13T04:36:32.364Z,225.00
2019-03-13T04:37:32.308Z,202.50
2019-03-13T04:38:32.478Z,202.50
2019-03-13T04:39:32.302Z,112.50
2019-03-13T04:40:32.237Z,135.00
2019-03-13T04:41:32.339Z,135.00
2019-03-13T04:42:32.278Z,135.00
2019-03-13T04:43:32.349Z,135.00
2019-03-13T04:44:32.280Z,135.00
2019-03-13T04:45:32.340Z,90.00
2019-03-13T04:46:32.275Z,112.50
2019-03-13T04:47:32.237Z,225.00
2019-03-13T04:48:32.285Z,135.00
2019-03-13T04:49:32.273Z,135.00
2019-03-13T04:50:32.344Z,112.50
2019-03-13T04:51:32.277Z,157.50
2019-03-13T04:52:32.345Z,90.00
2019-03-13T04:53:32.351Z,112.50
2019-03-13T04:54:32.276Z,90.00
2019-03-13T04:55:32.235Z,135.00
2019-03-13T04:56:32.280Z,135.00
2019-03-13T04:57:32.289Z,135.00
2019-03-13T04:58:32.278Z,270.00
2019-03-13T04:59:32.355Z,180.00
2019-03-13T05:00:32.384Z,202.50
2019-03-13T05:01:32.279Z,135.00
2019-03-13T05:02:32.354Z,90.00
2019-03-13T05:03:32.408Z,135.00
2019-03-13T05:04:32.352Z,135.00
2019-03-13T05:05:32.296Z,202.50
2019-03-13T05:06:32.281Z,157.50
2019-03-13T05:07:32.296Z,90.00
2019-03-13T05:08:44.526Z,135.00
2019-03-13T05:09:32.363Z,135.00
2019-03-13T05:10:32.287Z,112.50
2019-03-13T05:11:32.365Z,112.50
2019-03-13T05:12:32.359Z,90.00
2019-03-13T05:13:32.313Z,112.50
2019-03-13T05:14:32.895Z,112.50
2019-03-13T05:15:32.307Z,180.00
2019-03-13T05:16:32.364Z,112.50
2019-03-13T05:17:32.372Z,112.50
2019-03-13T05:18:32.217Z,135.00
2019-03-13T05:19:32.286Z,180.00
2019-03-13T05:20:32.222Z,112.50
2019-03-13T05:21:32.238Z,202.50
2019-03-13T05:22:32.170Z,202.50
2019-03-13T05:23:32.351Z,157.50
2019-03-13T05:24:32.218Z,112.50
2019-03-13T05:25:32.265Z,135.00
2019-03-13T05:26:32.285Z,135.00
2019-03-13T05:27:32.268Z,112.50
2019-03-13T05:28:32.287Z,112.50
2019-03-13T05:29:32.365Z,135.00
2019-03-13T05:30:32.291Z,90.00
2019-03-13T05:31:32.364Z,180.00
2019-03-13T05:32:32.365Z,135.00
2019-03-13T05:33:32.366Z,180.00
2019-03-13T05:34:32.366Z,112.50
2019-03-13T05:35:32.388Z,112.50
2019-03-13T05:36:32.370Z,112.50
2019-03-13T05:37:32.297Z,157.50
2019-03-13T05:38:32.310Z,135.00
2019-03-13T05:39:32.317Z,202.50
2019-03-13T05:40:32.384Z,157.50
2019-03-13T05:41:32.378Z,112.50
2019-03-13T05:42:32.311Z,180.00
2019-03-13T05:43:32.279Z,112.50
2019-03-13T05:44:32.376Z,90.00
2019-03-13T05:45:32.386Z,90.00
2019-03-13T05:46:32.383Z,157.50
2019-03-13T05:47:32.311Z,112.50
2019-03-13T05:48:32.327Z,112.50
2019-03-13T05:49:32.315Z,157.50
2019-03-13T05:51:32.317Z,157.50
2019-03-13T05:52:32.331Z,135.00
2019-03-13T05:53:32.341Z,157.50
2019-03-13T05:54:32.399Z,157.50
2019-03-13T05:55:32.391Z,157.50
2019-03-13T05:56:32.339Z,112.50
2019-03-13T05:57:32.322Z,112.50
2019-03-13T05:58:32.287Z,90.00
2019-03-13T05:59:32.390Z,135.00
2019-03-13T06:00:32.326Z,135.00
2019-03-13T06:01:32.394Z,135.00
2019-03-13T06:02:32.404Z,112.50
2019-03-13T06:03:32.394Z,112.50
2019-03-13T06:04:32.423Z,135.00
2019-03-13T06:05:32.353Z,135.00
2019-03-13T06:06:32.404Z,135.00
2019-03-13T06:07:32.338Z,112.50
2019-03-13T06:08:32.349Z,135.00
2019-03-13T06:09:32.379Z,135.00
2019-03-13T06:10:32.332Z,135.00
2019-03-13T06:11:32.294Z,135.00
2019-03-13T06:12:32.318Z,112.50
2019-03-13T06:13:32.304Z,135.00
2019-03-13T06:14:32.391Z,135.00
2019-03-13T06:15:32.392Z,135.00
2019-03-13T06:16:32.383Z,135.00
2019-03-13T06:17:32.379Z,112.50
2019-03-13T06:18:32.259Z,112.50
2019-03-13T06:19:32.267Z,180.00
2019-03-13T06:20:32.325Z,135.00
2019-03-13T06:21:32.325Z,135.00
2019-03-13T06:22:32.352Z,135.00
2019-03-13T06:23:32.272Z,135.00
2019-03-13T06:24:32.304Z,157.50
2019-03-13T06:25:32.367Z,135.00
2019-03-13T06:26:32.368Z,135.00
2019-03-13T06:27:32.374Z,112.50
2019-03-13T06:28:32.403Z,112.50
2019-03-13T06:29:32.333Z,135.00
2019-03-13T06:30:32.400Z,112.50
2019-03-13T06:31:32.317Z,135.00
2019-03-13T06:32:32.401Z,135.00
2019-03-13T06:33:32.333Z,135.00
2019-03-13T06:34:32.376Z,112.50
2019-03-13T06:35:32.364Z,135.00
2019-03-13T06:36:32.336Z,157.50
2019-03-13T06:37:32.319Z,135.00
2019-03-13T06:38:32.322Z,135.00
2019-03-13T06:39:32.319Z,157.50
2019-03-13T06:40:32.398Z,157.50
2019-03-13T06:41:32.404Z,112.50
2019-03-13T06:42:32.291Z,112.50
2019-03-13T06:43:32.309Z,112.50
2019-03-13T06:44:32.311Z,157.50
2019-03-13T06:45:32.318Z,135.00
2019-03-13T06:46:32.409Z,157.50
2019-03-13T06:47:32.347Z,157.50
2019-03-13T06:48:32.323Z,135.00
2019-03-13T06:49:32.424Z,112.50
2019-03-13T06:50:32.356Z,180.00
2019-03-13T06:51:32.356Z,135.00
2019-03-13T06:52:32.357Z,157.50
2019-03-13T06:53:32.426Z,112.50
2019-03-13T06:54:32.442Z,135.00
2019-03-13T06:55:32.365Z,135.00
2019-03-13T06:56:32.370Z,90.00
2019-03-13T06:57:32.359Z,157.50
2019-03-13T06:58:32.427Z,180.00
2019-03-13T06:59:32.378Z,135.00
2019-03-13T07:00:32.401Z,157.50
2019-03-13T07:01:32.380Z,180.00
2019-03-13T07:02:32.404Z,112.50
2019-03-13T07:03:32.379Z,112.50
2019-03-13T07:04:32.301Z,180.00
2019-03-13T07:05:32.382Z,135.00
2019-03-13T07:06:32.358Z,135.00
2019-03-13T07:07:32.421Z,157.50
2019-03-13T07:08:32.328Z,180.00
2019-03-13T07:09:32.440Z,135.00
2019-03-13T07:10:32.378Z,157.50
2019-03-13T07:11:32.369Z,135.00
2019-03-13T07:12:32.441Z,112.50
2019-03-13T07:13:32.375Z,135.00
2019-03-13T07:14:32.371Z,135.00
2019-03-13T07:15:35.698Z,112.50
2019-03-13T07:16:32.374Z,157.50
2019-03-13T07:17:32.377Z,135.00
2019-03-13T07:18:32.451Z,180.00
2019-03-13T07:19:32.353Z,112.50
2019-03-13T07:20:32.352Z,157.50
2019-03-13T07:21:32.335Z,135.00
2019-03-13T07:22:32.445Z,157.50
2019-03-13T07:23:32.347Z,202.50
2019-03-13T07:24:32.446Z,157.50
2019-03-13T07:25:32.442Z,135.00
2019-03-13T07:26:32.390Z,180.00
2019-03-13T07:27:32.451Z,202.50
2019-03-13T07:28:32.448Z,157.50
2019-03-13T07:29:32.389Z,135.00
2019-03-13T07:30:32.371Z,135.00
2019-03-13T07:31:32.382Z,180.00
2019-03-13T07:32:32.401Z,157.50
2019-03-13T07:33:32.387Z,112.50
2019-03-13T07:34:32.359Z,157.50
2019-03-13T07:35:32.375Z,135.00
2019-03-13T07:36:32.319Z,135.00
2019-03-13T07:37:32.316Z,157.50
2019-03-13T07:38:32.315Z,135.00
2019-03-13T07:39:32.412Z,112.50
2019-03-13T07:40:32.393Z,135.00
2019-03-13T07:41:35.513Z,135.00
2019-03-13T07:42:32.400Z,112.50
2019-03-13T07:43:32.471Z,157.50
2019-03-13T07:44:32.414Z,135.00
2019-03-13T07:45:32.468Z,90.00
2019-03-13T07:46:32.465Z,90.00
2019-03-13T07:47:32.479Z,202.50
2019-03-13T07:48:32.399Z,157.50
2019-03-13T07:49:32.431Z,112.50
2019-03-13T07:50:32.371Z,135.00
2019-03-13T07:51:32.469Z,202.50
2019-03-13T07:52:32.957Z,135.00
2019-03-13T07:53:32.430Z,112.50
2019-03-13T07:54:32.454Z,112.50
2019-03-13T07:55:32.377Z,157.50
2019-03-13T07:56:32.397Z,112.50
2019-03-13T07:57:32.392Z,135.00
2019-03-13T07:58:32.380Z,112.50
2019-03-13T07:59:32.436Z,135.00
2019-03-13T08:00:32.381Z,157.50
2019-03-13T08:01:32.407Z,135.00
2019-03-13T08:02:32.393Z,135.00
2019-03-13T08:03:32.435Z,157.50
2019-03-13T08:04:32.465Z,157.50
2019-03-13T08:05:32.381Z,157.50
2019-03-13T08:06:32.412Z,157.50
2019-03-13T08:07:32.383Z,135.00
2019-03-13T08:08:32.468Z,112.50
2019-03-13T08:09:32.421Z,157.50
2019-03-13T08:10:32.481Z,157.50
2019-03-13T08:11:32.446Z,90.00
2019-03-13T08:12:32.481Z,135.00
2019-03-13T08:13:32.483Z,157.50
2019-03-13T08:14:32.483Z,112.50
2019-03-13T08:15:32.418Z,112.50
2019-03-13T08:16:32.482Z,135.00
2019-03-13T08:17:32.416Z,112.50
2019-03-13T08:18:32.483Z,135.00
2019-03-13T08:19:32.484Z,157.50
2019-03-13T08:20:32.454Z,157.50
2019-03-13T08:21:32.489Z,112.50
2019-03-13T08:22:32.422Z,157.50
2019-03-13T08:23:32.494Z,157.50
2019-03-13T08:24:32.501Z,157.50
2019-03-13T08:25:32.424Z,135.00
2019-03-13T08:26:32.502Z,157.50
2019-03-13T08:27:32.431Z,112.50
2019-03-13T08:28:32.440Z,112.50
2019-03-13T08:29:32.369Z,135.00
2019-03-13T08:30:32.415Z,112.50
2019-03-13T08:31:32.403Z,157.50
2019-03-13T08:32:32.513Z,157.50
2019-03-13T08:33:32.371Z,135.00
2019-03-13T08:34:32.487Z,135.00
2019-03-13T08:35:32.417Z,157.50
2019-03-13T08:36:32.492Z,135.00
2019-03-13T08:37:32.404Z,180.00
2019-03-13T08:38:32.494Z,157.50
2019-03-13T08:39:32.433Z,157.50
2019-03-13T08:40:32.502Z,135.00
2019-03-13T08:41:32.508Z,112.50
2019-03-13T08:42:32.438Z,135.00
2019-03-13T08:43:32.406Z,180.00
2019-03-13T08:44:32.506Z,157.50
2019-03-13T08:45:32.444Z,112.50
2019-03-13T08:46:32.513Z,157.50
2019-03-13T08:47:32.510Z,112.50
2019-03-13T08:48:32.511Z,157.50
2019-03-13T08:49:32.445Z,135.00
2019-03-13T08:50:32.507Z,157.50
2019-03-13T08:51:32.507Z,157.50
2019-03-13T08:52:32.450Z,157.50
2019-03-13T08:53:32.442Z,180.00
2019-03-13T08:54:32.509Z,157.50
2019-03-13T08:55:32.442Z,112.50
2019-03-13T08:56:32.512Z,135.00
2019-03-13T08:57:32.458Z,157.50
2019-03-13T08:58:32.513Z,135.00
2019-03-13T08:59:32.466Z,157.50
2019-03-13T09:00:32.450Z,135.00
2019-03-13T09:01:32.526Z,112.50
2019-03-13T09:02:32.475Z,157.50
2019-03-13T09:03:32.436Z,135.00
2019-03-13T09:04:32.520Z,135.00
2019-03-13T09:05:32.528Z,135.00
2019-03-13T09:06:32.456Z,157.50
2019-03-13T09:07:32.529Z,135.00
2019-03-13T09:08:32.451Z,157.50
2019-03-13T09:09:32.419Z,157.50
2019-03-13T09:10:32.478Z,180.00
2019-03-13T09:11:32.443Z,157.50
2019-03-13T09:12:32.506Z,157.50
2019-03-13T09:13:32.453Z,180.00
2019-03-13T09:14:32.435Z,135.00
2019-03-13T09:15:32.399Z,135.00
2019-03-13T09:16:32.533Z,135.00
2019-03-13T09:17:32.448Z,157.50
2019-03-13T09:18:32.482Z,135.00
2019-03-13T09:19:32.446Z,135.00
2019-03-13T09:20:32.458Z,157.50
2019-03-13T09:21:33.642Z,112.50
2019-03-13T09:22:32.452Z,135.00
2019-03-13T09:23:32.523Z,135.00
2019-03-13T09:24:32.410Z,135.00
2019-03-13T09:25:32.461Z,157.50
2019-03-13T09:26:32.457Z,135.00
2019-03-13T09:27:32.488Z,157.50
2019-03-13T09:28:32.465Z,135.00
2019-03-13T09:29:32.655Z,157.50
2019-03-13T09:30:32.510Z,157.50
2019-03-13T09:31:32.494Z,157.50
2019-03-13T09:32:32.529Z,157.50
2019-03-13T09:33:32.528Z,157.50
2019-03-13T09:34:32.538Z,157.50
2019-03-13T09:35:32.444Z,180.00
2019-03-13T09:36:32.421Z,180.00
2019-03-13T09:37:32.533Z,135.00
2019-03-13T09:38:32.463Z,202.50
2019-03-13T09:39:32.523Z,180.00
2019-03-13T09:40:32.522Z,135.00
2019-03-13T09:41:32.469Z,157.50
2019-03-13T09:42:32.442Z,157.50
2019-03-13T09:43:32.525Z,157.50
2019-03-13T09:44:32.510Z,135.00
2019-03-13T09:45:32.407Z,135.00
2019-03-13T09:46:32.542Z,135.00
2019-03-13T09:47:32.499Z,157.50
2019-03-13T09:48:32.534Z,180.00
2019-03-13T09:49:32.549Z,180.00
2019-03-13T09:50:32.497Z,157.50
2019-03-13T09:51:32.781Z,180.00
2019-03-13T09:52:32.563Z,157.50
2019-03-13T09:53:32.551Z,157.50
2019-03-13T09:54:32.488Z,180.00
2019-03-13T09:55:32.495Z,180.00
2019-03-13T09:56:32.493Z,157.50
2019-03-13T09:57:32.557Z,135.00
2019-03-13T09:58:32.487Z,157.50
2019-03-13T09:59:42.746Z,180.00
2019-03-13T10:00:32.487Z,112.50
2019-03-13T10:01:32.556Z,157.50
2019-03-13T10:02:32.564Z,157.50
2019-03-13T10:03:32.495Z,157.50
2019-03-13T10:04:32.558Z,157.50
2019-03-13T10:05:32.560Z,202.50
2019-03-13T10:06:32.562Z,180.00
2019-03-13T10:07:32.563Z,180.00
2019-03-13T10:08:32.495Z,180.00
2019-03-13T10:09:32.567Z,180.00
2019-03-13T10:10:32.575Z,157.50
2019-03-13T10:11:32.500Z,157.50
2019-03-13T10:12:32.571Z,157.50
2019-03-13T10:13:32.500Z,157.50
2019-03-13T10:14:32.569Z,135.00
2019-03-13T10:15:32.572Z,180.00
2019-03-13T10:16:32.505Z,135.00
2019-03-13T10:17:32.579Z,135.00
2019-03-13T10:18:32.611Z,157.50
2019-03-13T10:19:32.548Z,157.50
2019-03-13T10:20:32.581Z,157.50
2019-03-13T10:21:32.585Z,180.00
2019-03-13T10:22:32.511Z,157.50
2019-03-13T10:23:32.521Z,180.00
2019-03-13T10:24:32.579Z,157.50
2019-03-13T10:25:32.506Z,180.00
2019-03-13T10:26:32.575Z,135.00
2019-03-13T10:27:32.513Z,157.50
2019-03-13T10:28:32.517Z,180.00
2019-03-13T10:29:32.583Z,157.50
2019-03-13T10:30:32.514Z,180.00
2019-03-13T10:31:32.591Z,157.50
2019-03-13T10:32:32.584Z,157.50
2019-03-13T10:33:32.592Z,180.00
2019-03-13T10:34:32.580Z,180.00
2019-03-13T10:35:32.518Z,180.00
2019-03-13T10:36:32.589Z,180.00
2019-03-13T10:37:32.519Z,157.50
2019-03-13T10:38:32.481Z,180.00
2019-03-13T10:39:32.587Z,157.50
2019-03-13T10:40:32.520Z,180.00
2019-03-13T10:41:32.585Z,135.00
2019-03-13T10:42:32.593Z,157.50
2019-03-13T10:43:32.525Z,157.50
2019-03-13T10:44:32.592Z,135.00
2019-03-13T10:45:32.523Z,180.00
2019-03-13T10:46:32.643Z,135.00
2019-03-13T10:47:32.526Z,180.00
2019-03-13T10:48:32.529Z,157.50
2019-03-13T10:49:32.527Z,112.50
2019-03-13T10:50:32.568Z,135.00
2019-03-13T10:51:32.529Z,180.00
2019-03-13T10:52:32.595Z,157.50
2019-03-13T10:53:32.561Z,180.00
2019-03-13T10:54:32.604Z,157.50
2019-03-13T10:55:32.597Z,157.50
2019-03-13T10:56:32.539Z,157.50
2019-03-13T10:57:32.609Z,135.00
2019-03-13T10:58:32.570Z,157.50
2019-03-13T10:59:32.498Z,180.00
2019-03-13T11:00:32.516Z,157.50
2019-03-13T11:01:32.502Z,180.00
2019-03-13T11:02:32.596Z,157.50
2019-03-13T11:03:32.557Z,157.50
2019-03-13T11:04:32.591Z,180.00
2019-03-13T11:05:32.559Z,157.50
2019-03-13T11:06:32.515Z,157.50
2019-03-13T11:07:32.538Z,180.00
2019-03-13T11:08:32.551Z,157.50
2019-03-13T11:09:32.528Z,180.00
2019-03-13T11:10:32.535Z,180.00
2019-03-13T11:11:32.516Z,157.50
2019-03-13T11:12:32.577Z,135.00
2019-03-13T11:13:32.520Z,157.50
2019-03-13T11:14:32.609Z,135.00
2019-03-13T11:15:32.502Z,157.50
2019-03-13T11:16:32.532Z,135.00
2019-03-13T11:17:32.608Z,157.50
2019-03-13T11:18:32.603Z,157.50
2019-03-13T11:19:32.616Z,135.00
2019-03-13T11:20:32.615Z,157.50
2019-03-13T11:21:32.548Z,157.50
2019-03-13T11:22:32.617Z,157.50
2019-03-13T11:23:32.552Z,157.50
2019-03-13T11:24:32.619Z,135.00
2019-03-13T11:25:32.618Z,180.00
2019-03-13T11:26:32.619Z,180.00
2019-03-13T11:27:32.553Z,135.00
2019-03-13T11:28:32.625Z,135.00
2019-03-13T11:29:32.563Z,157.50
2019-03-13T11:30:32.560Z,180.00
2019-03-13T11:31:32.626Z,157.50
2019-03-13T11:32:32.623Z,157.50
2019-03-13T11:33:32.627Z,135.00
2019-03-13T11:34:32.621Z,157.50
2019-03-13T11:35:32.626Z,180.00
2019-03-13T11:36:35.004Z,135.00
2019-03-13T11:37:32.629Z,180.00
2019-03-13T11:38:32.635Z,157.50
2019-03-13T11:39:32.573Z,180.00
2019-03-13T11:40:32.559Z,157.50
2019-03-13T11:41:32.573Z,157.50
2019-03-13T11:42:32.628Z,157.50
2019-03-13T11:43:32.628Z,180.00
2019-03-13T11:44:32.565Z,180.00
2019-03-13T11:45:32.643Z,180.00
2019-03-13T11:46:32.568Z,157.50
2019-03-13T11:47:41.839Z,180.00
2019-03-13T11:48:32.579Z,157.50
2019-03-13T11:49:32.648Z,180.00
2019-03-13T11:50:32.751Z,180.00
2019-03-13T11:51:32.648Z,180.00
2019-03-13T11:52:32.576Z,180.00
2019-03-13T11:53:32.650Z,180.00
2019-03-13T11:54:32.643Z,202.50
2019-03-13T11:55:32.578Z,157.50
2019-03-13T11:56:32.637Z,180.00
2019-03-13T11:57:32.642Z,157.50
2019-03-13T11:58:32.644Z,180.00
2019-03-13T11:59:32.649Z,135.00
2019-03-13T12:00:32.624Z,157.50
2019-03-13T12:01:44.902Z,180.00
2019-03-13T12:02:32.577Z,157.50
2019-03-13T12:03:32.577Z,135.00
2019-03-13T12:04:32.580Z,157.50
2019-03-13T12:05:32.601Z,157.50
2019-03-13T12:06:32.550Z,135.00
2019-03-13T12:07:32.574Z,157.50
2019-03-13T12:08:32.557Z,180.00
2019-03-13T12:09:32.632Z,180.00
2019-03-13T12:10:32.650Z,157.50
2019-03-13T12:11:32.590Z,157.50
2019-03-13T12:12:32.654Z,157.50
2019-03-13T12:13:32.652Z,157.50
2019-03-13T12:14:32.652Z,157.50
2019-03-13T12:15:32.593Z,180.00
2019-03-13T12:16:32.681Z,157.50
2019-03-13T12:17:32.588Z,180.00
2019-03-13T12:18:32.661Z,135.00
2019-03-13T12:19:32.594Z,135.00
2019-03-13T12:20:32.603Z,157.50
2019-03-13T12:21:32.663Z,112.50
2019-03-13T12:22:32.617Z,180.00
2019-03-13T12:23:32.659Z,180.00
2019-03-13T12:24:32.666Z,157.50
2019-03-13T12:25:32.627Z,135.00
2019-03-13T12:26:32.676Z,180.00
2019-03-13T12:27:32.663Z,180.00
2019-03-13T12:28:32.617Z,135.00
2019-03-13T12:29:32.664Z,180.00
2019-03-13T12:30:32.601Z,157.50